createdAt,value
2018-07-21T00:02:23.232Z,19.40
2018-07-21T00:04:51.873Z,19.30
2018-07-21T00:07:20.808Z,19.20
2018-07-21T00:09:49.476Z,19.10
2018-07-21T00:12:18.048Z,18.90
2018-07-21T00:14:46.629Z,18.80
2018-07-21T00:17:15.308Z,18.70
2018-07-21T00:19:43.873Z,18.80
2018-07-21T00:22:12.940Z,18.80
2018-07-21T00:24:42.061Z,18.80
2018-07-21T00:27:20.360Z,18.80
2018-07-21T00:29:49.536Z,18.80
2018-07-21T00:32:18.711Z,18.70
2018-07-21T00:34:48.417Z,18.70
2018-07-21T00:37:18.727Z,18.60
2018-07-21T00:39:47.342Z,18.60
2018-07-21T00:42:16.120Z,18.60
2018-07-21T00:44:44.750Z,18.60
2018-07-21T00:47:13.383Z,18.60
2018-07-21T00:49:42.039Z,18.60
2018-07-21T00:52:10.685Z,18.60
2018-07-21T00:54:39.397Z,18.70
2018-07-21T00:57:08.125Z,18.70
2018-07-21T00:59:36.822Z,18.60
2018-07-21T01:02:05.423Z,18.50
2018-07-21T01:04:34.056Z,18.50
2018-07-21T01:07:02.631Z,18.50
2018-07-21T01:09:31.242Z,18.40
2018-07-21T01:11:59.883Z,18.30
2018-07-21T01:14:28.544Z,18.20
2018-07-21T01:19:25.708Z,18.20
2018-07-21T01:21:54.333Z,18.10
2018-07-21T01:24:22.948Z,17.90
2018-07-21T01:26:51.532Z,17.90
2018-07-21T01:29:20.143Z,18.00
2018-07-21T01:31:48.751Z,17.90
2018-07-21T01:34:17.412Z,17.80
2018-07-21T01:36:46.011Z,17.70
2018-07-21T01:39:14.696Z,17.70
2018-07-21T01:41:43.295Z,17.70
2018-07-21T01:44:11.948Z,17.70
2018-07-21T01:46:40.958Z,17.70
2018-07-21T01:49:09.621Z,17.60
2018-07-21T01:54:06.732Z,17.50
2018-07-21T01:56:35.431Z,17.40
2018-07-21T01:59:04.123Z,17.20
2018-07-21T02:01:32.788Z,17.20
2018-07-21T02:04:01.425Z,17.10
2018-07-21T02:08:58.556Z,16.80
2018-07-21T02:11:27.171Z,16.80
2018-07-21T02:13:55.843Z,16.70
2018-07-21T02:16:24.483Z,16.80
2018-07-21T02:18:53.131Z,16.80
2018-07-21T02:21:21.760Z,16.80
2018-07-21T02:23:50.412Z,16.90
2018-07-21T02:26:19.001Z,16.90
2018-07-21T02:28:47.596Z,16.90
2018-07-21T02:31:16.191Z,16.90
2018-07-21T02:33:44.757Z,16.90
2018-07-21T02:36:13.400Z,17.00
2018-07-21T02:38:42.076Z,17.00
2018-07-21T02:41:10.736Z,17.00
2018-07-21T02:43:39.402Z,17.00
2018-07-21T02:46:08.086Z,17.00
2018-07-21T02:48:36.751Z,17.10
2018-07-21T02:51:05.472Z,17.10
2018-07-21T02:53:34.131Z,17.10
2018-07-21T02:56:02.807Z,17.10
2018-07-21T02:58:31.427Z,17.00
2018-07-21T03:01:00.077Z,17.20
2018-07-21T03:03:28.720Z,17.30
2018-07-21T03:05:57.331Z,17.40
2018-07-21T03:08:25.978Z,17.50
2018-07-21T03:10:54.567Z,17.60
2018-07-21T03:13:23.141Z,17.80
2018-07-21T03:15:51.766Z,17.80
2018-07-21T03:18:20.488Z,17.80
2018-07-21T03:20:49.108Z,17.80
2018-07-21T03:23:17.793Z,17.90
2018-07-21T03:25:46.448Z,18.00
2018-07-21T03:28:15.133Z,18.20
2018-07-21T03:30:43.813Z,18.30
2018-07-21T03:33:12.450Z,18.40
2018-07-21T03:35:41.148Z,18.60
2018-07-21T03:40:38.297Z,18.90
2018-07-21T03:43:07.045Z,19.00
2018-07-21T03:45:35.748Z,19.10
2018-07-21T03:48:04.451Z,19.20
2018-07-21T03:50:33.108Z,19.10
2018-07-21T03:53:01.893Z,19.10
2018-07-21T03:55:30.455Z,19.00
2018-07-21T03:57:59.117Z,18.90
2018-07-21T04:00:27.813Z,18.80
2018-07-21T04:02:56.493Z,18.70
2018-07-21T04:05:25.128Z,18.70
2018-07-21T04:07:53.735Z,18.60
2018-07-21T04:10:22.444Z,18.60
2018-07-21T04:12:51.046Z,18.70
2018-07-21T04:15:19.610Z,18.80
2018-07-21T04:17:48.183Z,18.90
2018-07-21T04:20:16.803Z,19.10
2018-07-21T04:22:45.480Z,19.20
2018-07-21T04:25:14.103Z,19.30
2018-07-21T04:27:42.695Z,19.40
2018-07-21T04:30:11.303Z,19.50
2018-07-21T04:35:08.575Z,19.40
2018-07-21T04:37:37.277Z,19.40
2018-07-21T04:40:07.398Z,19.40
2018-07-21T04:42:36.116Z,19.50
2018-07-21T04:45:04.811Z,19.50
2018-07-21T04:47:33.448Z,19.60
2018-07-21T04:50:02.105Z,19.60
2018-07-21T04:54:59.215Z,19.70
2018-07-21T04:57:28.015Z,19.70
2018-07-21T04:59:56.708Z,19.70
2018-07-21T05:02:25.357Z,19.70
2018-07-21T05:04:53.982Z,19.90
2018-07-21T05:07:22.765Z,19.90
2018-07-21T05:09:51.420Z,19.90
2018-07-21T05:12:20.058Z,19.90
2018-07-21T05:14:48.646Z,20.00
2018-07-21T05:17:17.295Z,20.10
2018-07-21T05:19:45.923Z,20.10
2018-07-21T05:24:42.990Z,20.00
2018-07-21T05:27:11.639Z,19.80
2018-07-21T05:29:40.350Z,19.80
2018-07-21T05:32:09.070Z,19.90
2018-07-21T05:34:37.783Z,20.00
2018-07-21T05:37:06.645Z,20.00
2018-07-21T05:39:35.385Z,20.10
2018-07-21T05:42:04.298Z,20.10
2018-07-21T05:47:01.669Z,20.10
2018-07-21T05:51:58.895Z,20.10
2018-07-21T05:54:27.597Z,20.20
2018-07-21T05:56:56.298Z,20.30
2018-07-21T05:59:24.941Z,20.40
2018-07-21T06:01:53.523Z,20.40
2018-07-21T06:04:22.896Z,20.50
2018-07-21T06:06:51.791Z,20.60
2018-07-21T06:09:20.459Z,20.70
2018-07-21T06:14:17.558Z,20.90
2018-07-21T06:16:46.788Z,21.00
2018-07-21T06:19:16.813Z,21.10
2018-07-21T06:21:45.485Z,21.10
2018-07-21T06:24:14.156Z,21.30
2018-07-21T06:26:42.786Z,21.60
2018-07-21T06:29:11.484Z,22.00
2018-07-21T06:31:40.189Z,22.30
2018-07-21T06:34:08.844Z,22.30
2018-07-21T06:36:37.502Z,22.10
2018-07-21T06:39:09.583Z,22.30
2018-07-21T06:41:38.221Z,22.60
2018-07-21T06:44:07.301Z,22.40
2018-07-21T06:46:36.023Z,22.20
2018-07-21T06:49:04.758Z,22.10
2018-07-21T06:51:33.525Z,22.50
2018-07-21T06:54:02.192Z,22.80
2018-07-21T06:56:30.928Z,23.20
2018-07-21T06:58:59.555Z,23.50
2018-07-21T07:01:28.399Z,23.60
2018-07-21T07:03:57.045Z,23.70
2018-07-21T07:06:25.758Z,23.70
2018-07-21T07:08:54.358Z,23.80
2018-07-21T07:11:22.978Z,23.80
2018-07-21T07:13:51.655Z,24.00
2018-07-21T07:16:20.326Z,24.30
2018-07-21T07:18:48.943Z,24.70
2018-07-21T07:21:17.606Z,25.20
2018-07-21T07:23:46.303Z,25.00
2018-07-21T07:26:14.990Z,24.80
2018-07-21T07:28:43.628Z,24.50
2018-07-21T07:31:12.216Z,24.70
2018-07-21T07:33:40.939Z,24.80
2018-07-21T07:36:09.563Z,24.80
2018-07-21T07:38:38.236Z,24.80
2018-07-21T07:43:35.343Z,24.40
2018-07-21T07:46:06.380Z,24.40
2018-07-21T07:48:35.396Z,24.50
2018-07-21T07:51:04.011Z,24.40
2018-07-21T07:53:34.582Z,24.30
2018-07-21T07:58:31.611Z,23.90
2018-07-21T08:01:00.342Z,23.90
2018-07-21T08:03:29.073Z,24.20
2018-07-21T08:05:57.851Z,24.20
2018-07-21T08:08:26.589Z,24.40
2018-07-21T08:10:55.231Z,24.30
2018-07-21T08:13:24.124Z,24.30
2018-07-21T08:15:52.730Z,24.60
2018-07-21T08:18:21.541Z,25.30
2018-07-21T08:20:50.183Z,25.80
2018-07-21T08:23:18.913Z,26.00
2018-07-21T08:25:47.824Z,25.80
2018-07-21T08:28:17.264Z,25.50
2018-07-21T08:30:45.978Z,25.30
2018-07-21T08:33:15.379Z,25.30
2018-07-21T08:35:44.058Z,25.20
2018-07-21T08:40:42.291Z,25.40
2018-07-21T08:43:11.006Z,25.50
2018-07-21T08:45:39.673Z,25.60
2018-07-21T08:48:08.723Z,25.50
2018-07-21T08:50:37.381Z,25.60
2018-07-21T08:53:06.009Z,25.80
2018-07-21T08:55:34.753Z,25.90
2018-07-21T08:58:04.160Z,25.70
2018-07-21T09:00:33.027Z,25.50
2018-07-21T09:03:01.794Z,25.70
2018-07-21T09:05:30.456Z,26.00
2018-07-21T09:07:59.149Z,26.30
2018-07-21T09:10:27.853Z,26.60
2018-07-21T09:12:57.591Z,26.60
2018-07-21T09:15:26.341Z,26.60
2018-07-21T09:17:55.004Z,26.70
2018-07-21T09:20:24.390Z,26.60
2018-07-21T09:22:53.116Z,26.60
2018-07-21T09:25:21.910Z,26.30
2018-07-21T09:27:51.712Z,26.20
2018-07-21T09:30:20.383Z,26.10
2018-07-21T09:32:49.045Z,26.20
2018-07-21T09:35:18.873Z,26.40
2018-07-21T09:37:47.591Z,26.30
2018-07-21T09:40:17.491Z,26.40
2018-07-21T09:42:46.180Z,26.40
2018-07-21T09:45:14.851Z,26.60
2018-07-21T09:47:43.645Z,26.60
2018-07-21T09:50:12.363Z,26.50
2018-07-21T09:52:41.196Z,26.50
2018-07-21T09:55:10.103Z,26.80
2018-07-21T09:57:38.842Z,27.50
2018-07-21T10:00:10.758Z,27.90
2018-07-21T10:02:39.558Z,28.10
2018-07-21T10:05:09.173Z,28.70
2018-07-21T10:07:38.982Z,28.80
2018-07-21T10:10:07.838Z,28.40
2018-07-21T10:12:36.699Z,27.70
2018-07-21T10:15:06.338Z,27.00
2018-07-21T10:17:35.012Z,26.80
2018-07-21T10:20:04.089Z,26.70
2018-07-21T10:22:32.882Z,26.90
2018-07-21T10:27:41.214Z,27.30
2018-07-21T10:32:38.673Z,27.30
2018-07-21T10:35:07.848Z,27.20
2018-07-21T10:37:36.741Z,27.00
2018-07-21T10:40:05.584Z,26.90
2018-07-21T10:42:35.052Z,26.90
2018-07-21T10:45:03.735Z,26.80
2018-07-21T10:50:01.891Z,27.00
2018-07-21T10:52:30.586Z,27.10
2018-07-21T10:54:59.413Z,27.30
2018-07-21T10:59:57.867Z,27.40
2018-07-21T11:02:26.554Z,27.50
2018-07-21T11:04:55.367Z,27.70
2018-07-21T11:09:53.011Z,27.80
2018-07-21T11:12:21.713Z,28.20
2018-07-21T11:14:51.587Z,28.40
2018-07-21T11:17:20.598Z,28.70
2018-07-21T11:19:49.289Z,29.50
2018-07-21T11:22:18.026Z,29.70
2018-07-21T11:24:46.743Z,29.80
2018-07-21T11:27:15.540Z,29.70
2018-07-21T11:29:44.278Z,29.40
2018-07-21T11:32:13.132Z,29.10
2018-07-21T11:34:42.027Z,29.10
2018-07-21T11:37:10.667Z,29.00
2018-07-21T11:39:39.399Z,29.20
2018-07-21T11:42:08.132Z,29.30
2018-07-21T11:44:36.941Z,29.50
2018-07-21T11:47:05.567Z,29.60
2018-07-21T11:49:34.776Z,29.60
2018-07-21T11:52:03.584Z,29.50
2018-07-21T11:54:32.274Z,29.60
2018-07-21T11:59:31.927Z,29.70
2018-07-21T12:02:00.788Z,29.60
2018-07-21T12:04:30.509Z,29.70
2018-07-21T12:06:59.201Z,29.70
2018-07-21T12:09:27.872Z,29.70
2018-07-21T12:11:56.660Z,29.70
2018-07-21T12:14:25.456Z,29.70
2018-07-21T12:16:54.076Z,29.70
2018-07-21T12:19:22.774Z,29.80
2018-07-21T12:21:51.513Z,30.00
2018-07-21T12:24:20.286Z,29.90
2018-07-21T12:26:48.928Z,29.80
2018-07-21T12:29:18.231Z,29.80
2018-07-21T12:31:47.016Z,29.60
2018-07-21T12:34:15.801Z,29.30
2018-07-21T12:36:44.731Z,29.50
2018-07-21T12:39:13.353Z,29.60
2018-07-21T12:41:42.137Z,29.60
2018-07-21T12:44:10.804Z,29.70
2018-07-21T12:46:39.549Z,29.70
2018-07-21T12:49:08.259Z,29.90
2018-07-21T12:54:05.597Z,30.00
2018-07-21T12:56:34.332Z,30.10
2018-07-21T12:59:03.312Z,30.30
2018-07-21T13:04:01.350Z,30.40
2018-07-21T13:06:30.086Z,30.10
2018-07-21T13:08:58.775Z,30.10
2018-07-21T13:11:27.613Z,29.90
2018-07-21T13:13:56.283Z,30.00
2018-07-21T13:16:25.079Z,30.00
2018-07-21T13:18:53.759Z,30.70
2018-07-21T13:21:22.971Z,31.10
2018-07-21T13:23:51.818Z,31.60
2018-07-21T13:26:20.669Z,31.50
2018-07-21T13:28:50.044Z,31.30
2018-07-21T13:31:19.423Z,31.60
2018-07-21T13:33:48.152Z,31.90
2018-07-21T13:36:16.876Z,31.90
2018-07-21T13:38:45.850Z,31.70
2018-07-21T13:41:14.676Z,31.30
2018-07-21T13:43:43.556Z,31.00
2018-07-21T13:46:12.292Z,30.60
2018-07-21T13:48:41.049Z,30.30
2018-07-21T13:51:09.879Z,30.40
2018-07-21T13:53:38.606Z,30.50
2018-07-21T13:56:07.360Z,30.60
2018-07-21T13:58:36.252Z,30.40
2018-07-21T14:01:05.129Z,30.20
2018-07-21T14:03:34.475Z,30.20
2018-07-21T14:06:04.291Z,30.50
2018-07-21T14:08:33.976Z,30.60
2018-07-21T14:13:31.687Z,30.70
2018-07-21T14:16:00.585Z,31.10
2018-07-21T14:18:29.285Z,31.90
2018-07-21T14:20:58.805Z,31.90
2018-07-21T14:23:27.619Z,31.40
2018-07-21T14:28:25.277Z,32.10
2018-07-21T14:30:54.150Z,32.00
2018-07-21T14:33:22.890Z,31.90
2018-07-21T14:35:51.733Z,31.50
2018-07-21T14:38:20.481Z,31.90
2018-07-21T14:40:49.193Z,32.30
2018-07-21T14:43:18.795Z,32.20
2018-07-21T14:45:47.851Z,32.00
2018-07-21T14:48:16.563Z,31.80
2018-07-21T14:50:46.996Z,31.90
2018-07-21T14:53:16.319Z,32.20
2018-07-21T14:55:45.849Z,32.70
2018-07-21T14:58:14.605Z,32.60
2018-07-21T15:00:43.904Z,32.50
2018-07-21T15:03:12.780Z,32.60
2018-07-21T15:05:41.554Z,32.30
2018-07-21T15:08:10.358Z,31.80
2018-07-21T15:10:39.083Z,31.80
2018-07-21T15:13:07.824Z,31.80
2018-07-21T15:15:36.564Z,31.80
2018-07-21T15:18:05.367Z,32.00
2018-07-21T15:20:34.079Z,31.90
2018-07-21T15:23:02.997Z,31.90
2018-07-21T15:25:31.676Z,31.60
2018-07-21T15:28:01.163Z,31.40
2018-07-21T15:30:29.899Z,31.50
2018-07-21T15:32:58.639Z,31.20
2018-07-21T15:35:27.378Z,31.20
2018-07-21T15:37:56.284Z,31.60
2018-07-21T15:40:25.684Z,31.90
2018-07-21T15:42:54.426Z,32.00
2018-07-21T15:45:23.258Z,32.00
2018-07-21T15:47:51.899Z,31.90
2018-07-21T15:50:20.679Z,32.20
2018-07-21T15:52:49.428Z,32.00
2018-07-21T15:55:19.119Z,31.80
2018-07-21T16:00:16.272Z,31.70
2018-07-21T16:05:13.601Z,31.40
2018-07-21T16:07:42.338Z,31.40
2018-07-21T16:10:11.087Z,31.40
2018-07-21T16:12:39.838Z,31.20
2018-07-21T16:15:08.525Z,31.10
2018-07-21T16:17:37.246Z,30.90
2018-07-21T16:20:06.183Z,30.90
2018-07-21T16:22:34.983Z,31.10
2018-07-21T16:25:04.982Z,31.20
2018-07-21T16:27:33.831Z,31.10
2018-07-21T16:30:02.571Z,30.70
2018-07-21T16:32:31.342Z,30.70
2018-07-21T16:34:59.996Z,30.50
2018-07-21T16:37:28.676Z,30.70
2018-07-21T16:39:57.341Z,30.60
2018-07-21T16:42:26.086Z,30.50
2018-07-21T16:44:54.719Z,30.70
2018-07-21T16:47:23.395Z,30.80
2018-07-21T16:49:52.103Z,30.80
2018-07-21T16:52:21.316Z,30.80
2018-07-21T16:54:50.097Z,31.10
2018-07-21T16:57:18.824Z,31.00
2018-07-21T16:59:47.676Z,31.00
2018-07-21T17:02:17.186Z,30.80
2018-07-21T17:04:46.926Z,30.90
2018-07-21T17:07:15.698Z,30.80
2018-07-21T17:09:45.138Z,30.10
2018-07-21T17:12:13.771Z,29.70
2018-07-21T17:14:42.464Z,29.40
2018-07-21T17:17:11.840Z,29.10
2018-07-21T17:19:40.603Z,29.00
2018-07-21T17:22:09.291Z,28.80
2018-07-21T17:24:37.923Z,28.80
2018-07-21T17:27:06.587Z,28.70
2018-07-21T17:29:35.291Z,28.50
2018-07-21T17:32:03.903Z,28.40
2018-07-21T17:37:01.119Z,28.50
2018-07-21T17:39:29.758Z,28.40
2018-07-21T17:44:26.948Z,28.30
2018-07-21T17:46:55.600Z,28.30
2018-07-21T17:51:52.779Z,28.20
2018-07-21T17:54:21.464Z,28.10
2018-07-21T17:59:18.623Z,28.00
2018-07-21T18:01:47.375Z,27.90
2018-07-21T18:04:16.003Z,27.80
2018-07-21T18:06:44.742Z,27.70
2018-07-21T18:09:13.390Z,27.60
2018-07-21T18:11:42.065Z,27.60
2018-07-21T18:14:10.750Z,27.50
2018-07-21T18:16:39.573Z,27.40
2018-07-21T18:19:08.316Z,27.20
2018-07-21T18:26:34.158Z,26.90
2018-07-21T18:29:02.930Z,26.90
2018-07-21T18:31:31.707Z,26.90
2018-07-21T18:34:00.437Z,26.80
2018-07-21T18:36:29.112Z,26.80
2018-07-21T18:38:57.896Z,26.60
2018-07-21T18:41:26.714Z,26.50
2018-07-21T18:43:55.412Z,26.50
2018-07-21T18:46:24.138Z,26.50
2018-07-21T18:48:52.775Z,26.60
2018-07-21T18:51:21.928Z,26.40
2018-07-21T18:53:50.550Z,26.30
2018-07-21T18:56:19.196Z,26.20
2018-07-21T18:58:47.825Z,26.20
2018-07-21T19:01:16.565Z,26.10
2018-07-21T19:03:45.190Z,26.00
2018-07-21T19:06:13.863Z,25.90
2018-07-21T19:08:48.050Z,25.70
2018-07-21T19:11:16.723Z,25.50
2018-07-21T19:13:45.438Z,25.20
2018-07-21T19:19:17.561Z,25.10
2018-07-21T19:21:47.024Z,25.00
2018-07-21T19:26:49.801Z,24.70
2018-07-21T19:29:18.608Z,24.50
2018-07-21T19:31:53.036Z,24.70
2018-07-21T19:34:21.778Z,24.80
2018-07-21T19:36:50.395Z,24.60
2018-07-21T19:41:54.506Z,24.30
2018-07-21T19:44:24.663Z,24.20
2018-07-21T19:46:53.441Z,24.20
2018-07-21T19:49:22.241Z,24.20
2018-07-21T19:51:51.663Z,24.00
2018-07-21T19:54:21.562Z,23.80
2018-07-21T19:56:50.342Z,23.90
2018-07-21T19:59:19.739Z,24.00
2018-07-21T20:04:16.971Z,24.00
2018-07-21T20:06:45.734Z,23.80
2018-07-21T20:09:14.451Z,23.80
2018-07-21T20:11:43.119Z,23.80
2018-07-21T20:14:12.623Z,23.70
2018-07-21T20:16:41.230Z,23.50
2018-07-21T20:19:09.915Z,23.40
2018-07-21T20:21:38.575Z,23.30
2018-07-21T20:24:07.383Z,23.20
2018-07-21T20:26:36.045Z,23.00
2018-07-21T20:29:04.752Z,22.90
2018-07-21T20:31:33.667Z,22.70
2018-07-21T20:36:30.910Z,22.80
2018-07-21T20:38:59.621Z,22.80
2018-07-21T20:43:56.996Z,22.80
2018-07-21T20:48:54.927Z,22.70
2018-07-21T20:51:23.754Z,22.70
2018-07-21T20:53:52.566Z,22.60
2018-07-21T20:56:21.469Z,22.50
2018-07-21T20:58:50.263Z,22.40
2018-07-21T21:01:18.941Z,22.30
2018-07-21T21:03:47.648Z,22.20
2018-07-21T21:06:16.811Z,22.10
2018-07-21T21:08:46.353Z,21.80
2018-07-21T21:11:15.092Z,21.70
2018-07-21T21:13:43.779Z,21.60
2018-07-21T21:18:41.766Z,21.70
2018-07-21T21:21:10.546Z,21.60
2018-07-21T21:26:07.856Z,21.40
2018-07-21T21:28:36.653Z,21.40
2018-07-21T21:31:05.448Z,21.30
2018-07-21T21:33:34.644Z,21.30
2018-07-21T21:36:03.431Z,21.30
2018-07-21T21:38:32.624Z,21.30
2018-07-21T21:41:01.317Z,21.10
2018-07-21T21:43:30.024Z,21.10
2018-07-21T21:45:58.709Z,21.00
2018-07-21T21:48:28.066Z,20.90
2018-07-21T21:50:57.245Z,20.80
2018-07-21T21:58:23.053Z,20.80
2018-07-21T22:01:03.956Z,20.80
2018-07-21T22:03:32.656Z,20.90
2018-07-21T22:06:01.458Z,20.90
2018-07-21T22:08:31.059Z,20.90
2018-07-21T22:10:59.772Z,20.90
2018-07-21T22:13:28.993Z,20.80
2018-07-21T22:15:58.221Z,20.70
2018-07-21T22:20:55.944Z,20.60
2018-07-21T22:23:24.611Z,20.50
2018-07-21T22:25:53.261Z,20.40
2018-07-21T22:30:50.365Z,20.30
2018-07-21T22:33:19.477Z,20.30
2018-07-21T22:35:48.199Z,20.20
2018-07-21T22:38:16.961Z,20.20
2018-07-21T22:40:45.639Z,20.20
2018-07-21T22:43:14.425Z,20.10
2018-07-21T22:45:43.103Z,20.10
2018-07-21T22:48:12.272Z,20.00
2018-07-21T22:50:41.926Z,19.80
2018-07-21T22:53:10.582Z,19.80
2018-07-21T22:55:39.468Z,19.80
2018-07-21T22:58:08.193Z,19.70
2018-07-21T23:00:37.303Z,19.70
2018-07-21T23:03:06.718Z,19.70
2018-07-21T23:08:03.990Z,19.60
2018-07-21T23:13:02.452Z,19.50
2018-07-21T23:15:31.186Z,19.40
2018-07-21T23:17:59.823Z,19.30
2018-07-21T23:20:28.454Z,19.30
2018-07-21T23:22:57.155Z,19.20
2018-07-21T23:25:25.800Z,19.30
2018-07-21T23:27:54.573Z,19.30
2018-07-21T23:30:23.233Z,19.40
2018-07-21T23:32:51.933Z,19.50
2018-07-21T23:35:20.896Z,19.60
2018-07-21T23:37:49.597Z,19.60
2018-07-21T23:40:18.318Z,19.60
2018-07-21T23:42:48.808Z,19.60
2018-07-21T23:45:17.498Z,19.50
2018-07-21T23:47:46.188Z,19.50
2018-07-21T23:50:15.211Z,19.50
2018-07-21T23:52:43.998Z,19.40
2018-07-21T23:55:12.679Z,19.30
2018-07-21T23:57:41.337Z,19.20
